Language selection

Features

My Weather Profile Weather Topics  | 

South Labrador Sea: Past 24 Hour Conditions

 

Mary's Harbour

04:30 PM NST 18 January 2020
Disclaimer

This table is a summary of hourly weather conditions for the past 24 hours.
Please note that these observations might not always be representative of weather conditions over their associated marine area.

Date / Time
(NST)
Wind(knots) Conditions Visibility(km) Pressure(kPa) Air tempC) Relative humidity(%) Dew pointC) Wind Chill
18 January 2020
16:30 WNW 14 gust 25 Sunny 16 100.7 -17 53 -25 -28
15:30 WNW 20 gust 33 Sunny 16 100.5 -16 51 -24 -28
14:30 WNW 21 gust 33 Sunny 16 100.3 -15 54 -23 -27
13:30 WNW 21 gust 34 Sunny 16 100.3 -15 57 -22 -28
12:30 NW 21 gust 39 Sunny 16 100.2 -16 59 -22 -29
11:30 WNW 23 gust 36 Sunny 16 100.2 -17 60 -23 -30
10:30 WNW 22 gust 36 Light Snow 16 100.1 -18 62 -24 -31
9:30 WNW 22 gust 33 Sunny 16 100.1 -19 65 -24 -33
8:30 WNW 20 gust 35 Sunny 16 100.0 -20 67 -24 -33
7:30 WNW 22 gust 35 Clear 16 100.0 -20 67 -25 -34
6:30 WNW 22 gust 33 Mainly Clear 16 100.0 -20 67 -24 -34
5:30 NW 22 gust 31 Cloudy 16 100.0 -19 66 -24 -33
4:30 WNW 21 gust 31 Cloudy 16 100.0 -19 64 -24 -32
3:30 NW 26 gust 36 Light Snow 11 100.0 -17 71 -21 -31
2:30 NW 27 gust 40 Light Snow 11 100.0 -14 70 -18 -27
1:30 NNW 28 gust 42 Light Snow 10 100.0 -14 72 -18 -27
0:30 NNW 28 gust 41 Light Snow 8 100.1 -14 72 -18 -27
17 January 2020
23:30 NNW 27 gust 45 Light Snow 5 100.2 -14 73 -18 -27
22:30 NNW 23 gust 41 Light Snow 8 100.2 -13 73 -17 -26
21:30 NNW 25 gust 42 Light Snow 6 100.3 -14 73 -18 -27
20:30 NNW 26 gust 36 Light Snow 5 100.5 -15 74 -19 -29
19:30 NNW 20 gust 31 Mostly Cloudy 16 100.6 -16 72 -20 -28
18:30 NNW 19 gust 29 Cloudy 16 100.8 -17 62 -23 -29
17:30 NNW 16 gust 29 Cloudy 16 100.9 -17 48 -25 -29
16:30 NNW 19 gust 25 Mainly Sunny 16 100.9 -18 47 -27 -31

Zoom-in to make a selection

Map of Atlantic - Newfoundland marine weather areas Banquereau - 44139 Blanc-Sablon Airport Cap Whittle Chevery Natashquan Airport Heath Point Îles de la Madeleine Airport Miscou Island Eskasoni (First Nations) Grand Étang Ingonish Beach North Mountain St.Paul Island J.A. Douglas McCurdy Sydney Airport Charlottetown Airport East Point North Cape Argentia Bonavista Burgeo Cape Race Corner Brook Daniel's Harbour Englee Ferolle Point La Scie Port aux Basques Rocky Harbour Sagona Island St. Anthony Airport St. John's Int'l Airport St. Lawrence Stephenville Airport Twillingate Winterland Branch Hill Wreckhouse Grates Cove Pool's Island Marticot Island Long Pond Cartwright Airport Mary's Harbour
Legend:
buoy Buoy
land station Land Station

Atlantic - Newfoundland Area

Another Region

What we are doing

Date modified: